sensor_id;sensor_type;location;lat;lon;timestamp;P1;durP1;ratioP1;P2;durP2;ratioP2
21959;SDS011;11144;43.030;25.108;2022-12-29T10:55:33;22.38;;;11.52;;
21959;SDS011;11144;43.030;25.108;2022-12-29T10:57:10;25.48;;;13.15;;
21959;SDS011;11144;43.030;25.108;2022-12-29T10:58:49;28.60;;;13.45;;
21959;SDS011;11144;43.030;25.108;2022-12-29T11:00:24;25.00;;;13.00;;
21959;SDS011;11144;43.030;25.108;2022-12-29T11:01:58;18.67;;;10.27;;
21959;SDS011;11144;43.030;25.108;2022-12-29T11:03:50;23.02;;;10.05;;
21959;SDS011;11144;43.030;25.108;2022-12-29T11:05:34;15.00;;;8.85;;
21959;SDS011;11144;43.030;25.108;2022-12-29T11:07:12;26.92;;;14.38;;
21959;SDS011;11144;43.030;25.108;2022-12-29T11:08:53;20.42;;;11.30;;
21959;SDS011;11144;43.030;25.108;2022-12-29T11:10:30;15.38;;;9.10;;
21959;SDS011;11144;43.030;25.108;2022-12-29T11:12:21;20.42;;;12.15;;
21959;SDS011;11144;43.030;25.108;2022-12-29T11:13:57;23.70;;;12.95;;
21959;SDS011;11144;43.030;25.108;2022-12-29T11:15:38;22.42;;;14.10;;
21959;SDS011;11144;43.030;25.108;2022-12-29T11:17:14;28.42;;;16.95;;
21959;SDS011;11144;43.030;25.108;2022-12-29T11:18:48;31.95;;;14.48;;
21959;SDS011;11144;43.030;25.108;2022-12-29T11:20:30;30.45;;;15.20;;
21959;SDS011;11144;43.030;25.108;2022-12-29T11:22:12;23.42;;;13.13;;
21959;SDS011;11144;43.030;25.108;2022-12-29T11:23:54;27.25;;;16.27;;
21959;SDS011;11144;43.030;25.108;2022-12-29T11:25:29;27.80;;;14.73;;
21959;SDS011;11144;43.030;25.108;2022-12-29T11:27:13;24.20;;;13.18;;
21959;SDS011;11144;43.030;25.108;2022-12-29T11:29:03;23.98;;;13.82;;
21959;SDS011;11144;43.030;25.108;2022-12-29T11:30:53;22.73;;;13.20;;
21959;SDS011;11144;43.030;25.108;2022-12-29T11:32:33;38.78;;;12.57;;
21959;SDS011;11144;43.030;25.108;2022-12-29T11:34:06;16.70;;;9.02;;
21959;SDS011;11144;43.030;25.108;2022-12-29T11:35:40;19.77;;;9.45;;
21959;SDS011;11144;43.030;25.108;2022-12-29T11:37:16;18.20;;;9.32;;
21959;SDS011;11144;43.030;25.108;2022-12-29T11:38:53;19.17;;;11.43;;
21959;SDS011;11144;43.030;25.108;2022-12-29T11:40:28;18.02;;;9.70;;
21959;SDS011;11144;43.030;25.108;2022-12-29T11:42:03;24.30;;;11.52;;
21959;SDS011;11144;43.030;25.108;2022-12-29T11:43:42;17.77;;;11.52;;
21959;SDS011;11144;43.030;25.108;2022-12-29T11:45:19;18.02;;;10.70;;
21959;SDS011;11144;43.030;25.108;2022-12-29T11:46:55;21.63;;;10.75;;
21959;SDS011;11144;43.030;25.108;2022-12-29T11:48:29;18.02;;;10.43;;
21959;SDS011;11144;43.030;25.108;2022-12-29T11:50:06;17.92;;;9.65;;
21959;SDS011;11144;43.030;25.108;2022-12-29T11:51:43;17.35;;;9.35;;
21959;SDS011;11144;43.030;25.108;2022-12-29T11:53:20;18.75;;;10.85;;
21959;SDS011;11144;43.030;25.108;2022-12-29T11:54:56;20.52;;;10.10;;
21959;SDS011;11144;43.030;25.108;2022-12-29T11:56:33;18.83;;;10.27;;
21959;SDS011;11144;43.030;25.108;2022-12-29T11:58:11;23.50;;;15.23;;
21959;SDS011;11144;43.030;25.108;2022-12-29T11:59:50;147.73;;;73.13;;
21959;SDS011;11144;43.030;25.108;2022-12-29T12:01:29;40.75;;;22.95;;
21959;SDS011;11144;43.030;25.108;2022-12-29T12:03:12;25.88;;;14.85;;
21959;SDS011;11144;43.030;25.108;2022-12-29T12:04:54;19.77;;;11.23;;
21959;SDS011;11144;43.030;25.108;2022-12-29T12:06:34;18.73;;;11.45;;
21959;SDS011;11144;43.030;25.108;2022-12-29T12:08:14;23.45;;;12.63;;
21959;SDS011;11144;43.030;25.108;2022-12-29T12:09:54;27.48;;;15.10;;
21959;SDS011;11144;43.030;25.108;2022-12-29T12:11:39;35.88;;;17.15;;
21959;SDS011;11144;43.030;25.108;2022-12-29T12:13:20;59.63;;;30.00;;
21959;SDS011;11144;43.030;25.108;2022-12-29T12:15:00;48.83;;;25.88;;
21959;SDS011;11144;43.030;25.108;2022-12-29T12:16:48;31.00;;;15.52;;
21959;SDS011;11144;43.030;25.108;2022-12-29T12:18:30;27.65;;;15.65;;
21959;SDS011;11144;43.030;25.108;2022-12-29T12:20:14;33.22;;;17.48;;
21959;SDS011;11144;43.030;25.108;2022-12-29T12:21:54;29.27;;;14.50;;
21959;SDS011;11144;43.030;25.108;2022-12-29T12:23:36;18.27;;;9.98;;
21959;SDS011;11144;43.030;25.108;2022-12-29T12:25:18;43.90;;;29.10;;
21959;SDS011;11144;43.030;25.108;2022-12-29T12:26:57;40.42;;;24.92;;
21959;SDS011;11144;43.030;25.108;2022-12-29T12:28:36;35.45;;;20.95;;
21959;SDS011;11144;43.030;25.108;2022-12-29T12:30:15;23.25;;;13.07;;
21959;SDS011;11144;43.030;25.108;2022-12-29T12:31:53;26.60;;;14.25;;
21959;SDS011;11144;43.030;25.108;2022-12-29T12:33:31;31.40;;;18.95;;
21959;SDS011;11144;43.030;25.108;2022-12-29T12:35:11;43.63;;;22.80;;
21959;SDS011;11144;43.030;25.108;2022-12-29T12:37:03;28.67;;;17.40;;
21959;SDS011;11144;43.030;25.108;2022-12-29T12:38:53;39.00;;;22.25;;
21959;SDS011;11144;43.030;25.108;2022-12-29T12:40:36;28.25;;;16.67;;
21959;SDS011;11144;43.030;25.108;2022-12-29T12:42:24;21.10;;;11.80;;
21959;SDS011;11144;43.030;25.108;2022-12-29T12:44:10;24.42;;;13.98;;
21959;SDS011;11144;43.030;25.108;2022-12-29T12:45:55;23.25;;;14.32;;
21959;SDS011;11144;43.030;25.108;2022-12-29T12:47:49;25.95;;;16.00;;
21959;SDS011;11144;43.030;25.108;2022-12-29T12:49:36;31.25;;;19.70;;
21959;SDS011;11144;43.030;25.108;2022-12-29T12:51:26;33.55;;;17.30;;
21959;SDS011;11144;43.030;25.108;2022-12-29T12:53:14;32.83;;;17.63;;
21959;SDS011;11144;43.030;25.108;2022-12-29T12:55:22;27.00;;;14.88;;
21959;SDS011;11144;43.030;25.108;2022-12-29T12:57:16;23.75;;;12.88;;
21959;SDS011;11144;43.030;25.108;2022-12-29T12:58:57;26.90;;;16.08;;
21959;SDS011;11144;43.030;25.108;2022-12-29T13:00:42;22.73;;;13.43;;
21959;SDS011;11144;43.030;25.108;2022-12-29T13:02:32;21.63;;;12.43;;
21959;SDS011;11144;43.030;25.108;2022-12-29T13:06:18;28.60;;;15.50;;
21959;SDS011;11144;43.030;25.108;2022-12-29T13:08:06;25.55;;;13.32;;
21959;SDS011;11144;43.030;25.108;2022-12-29T13:10:19;28.67;;;15.25;;
21959;SDS011;11144;43.030;25.108;2022-12-29T13:12:05;26.60;;;15.88;;
21959;SDS011;11144;43.030;25.108;2022-12-29T13:13:59;28.45;;;16.45;;
21959;SDS011;11144;43.030;25.108;2022-12-29T13:15:44;30.83;;;15.27;;
21959;SDS011;11144;43.030;25.108;2022-12-29T13:17:25;31.08;;;17.15;;
21959;SDS011;11144;43.030;25.108;2022-12-29T13:19:06;98.25;;;40.58;;
21959;SDS011;11144;43.030;25.108;2022-12-29T13:20:47;29.70;;;16.67;;
21959;SDS011;11144;43.030;25.108;2022-12-29T13:22:28;36.90;;;19.80;;
21959;SDS011;11144;43.030;25.108;2022-12-29T13:24:10;39.22;;;21.60;;
21959;SDS011;11144;43.030;25.108;2022-12-29T13:25:50;35.40;;;18.83;;
21959;SDS011;11144;43.030;25.108;2022-12-29T13:27:31;34.22;;;17.52;;
21959;SDS011;11144;43.030;25.108;2022-12-29T13:29:12;33.00;;;20.02;;
21959;SDS011;11144;43.030;25.108;2022-12-29T13:30:52;29.83;;;17.05;;
21959;SDS011;11144;43.030;25.108;2022-12-29T13:32:42;27.33;;;15.77;;
21959;SDS011;11144;43.030;25.108;2022-12-29T13:34:30;27.63;;;15.85;;
21959;SDS011;11144;43.030;25.108;2022-12-29T13:36:13;28.40;;;16.25;;
21959;SDS011;11144;43.030;25.108;2022-12-29T13:37:56;37.70;;;16.05;;
21959;SDS011;11144;43.030;25.108;2022-12-29T13:39:34;21.77;;;12.88;;
21959;SDS011;11144;43.030;25.108;2022-12-29T13:41:11;19.70;;;11.95;;
21959;SDS011;11144;43.030;25.108;2022-12-29T13:42:49;19.05;;;11.63;;
21959;SDS011;11144;43.030;25.108;2022-12-29T13:44:25;21.23;;;12.93;;
21959;SDS011;11144;43.030;25.108;2022-12-29T13:46:07;29.92;;;14.77;;
21959;SDS011;11144;43.030;25.108;2022-12-29T13:47:46;69.53;;;34.95;;
21959;SDS011;11144;43.030;25.108;2022-12-29T13:49:25;38.53;;;21.10;;
21959;SDS011;11144;43.030;25.108;2022-12-29T13:51:01;25.65;;;14.93;;
21959;SDS011;11144;43.030;25.108;2022-12-29T13:52:36;23.33;;;13.90;;
21959;SDS011;11144;43.030;25.108;2022-12-29T13:54:16;92.00;;;39.63;;
21959;SDS011;11144;43.030;25.108;2022-12-29T13:55:55;93.10;;;45.40;;
21959;SDS011;11144;43.030;25.108;2022-12-29T13:57:39;66.28;;;32.53;;
21959;SDS011;11144;43.030;25.108;2022-12-29T13:59:21;47.85;;;25.13;;
21959;SDS011;11144;43.030;25.108;2022-12-29T14:01:00;36.17;;;21.75;;
21959;SDS011;11144;43.030;25.108;2022-12-29T14:02:42;45.05;;;23.73;;
21959;SDS011;11144;43.030;25.108;2022-12-29T14:04:32;27.38;;;15.07;;
21959;SDS011;11144;43.030;25.108;2022-12-29T14:06:14;26.92;;;15.50;;
21959;SDS011;11144;43.030;25.108;2022-12-29T14:07:56;22.10;;;13.80;;
21959;SDS011;11144;43.030;25.108;2022-12-29T14:09:40;39.00;;;18.80;;
21959;SDS011;11144;43.030;25.108;2022-12-29T14:11:18;326.42;;;87.57;;
21959;SDS011;11144;43.030;25.108;2022-12-29T14:12:59;90.32;;;32.13;;
21959;SDS011;11144;43.030;25.108;2022-12-29T14:14:36;139.32;;;46.35;;
21959;SDS011;11144;43.030;25.108;2022-12-29T14:16:27;39.15;;;18.85;;
21959;SDS011;11144;43.030;25.108;2022-12-29T14:18:10;79.05;;;35.20;;
21959;SDS011;11144;43.030;25.108;2022-12-29T14:19:47;101.00;;;51.85;;
21959;SDS011;11144;43.030;25.108;2022-12-29T14:21:27;100.97;;;49.05;;
21959;SDS011;11144;43.030;25.108;2022-12-29T14:23:15;70.03;;;36.00;;
21959;SDS011;11144;43.030;25.108;2022-12-29T14:24:50;45.58;;;25.65;;
21959;SDS011;11144;43.030;25.108;2022-12-29T14:26:33;54.22;;;30.20;;
21959;SDS011;11144;43.030;25.108;2022-12-29T14:28:15;41.38;;;23.40;;
21959;SDS011;11144;43.030;25.108;2022-12-29T14:29:55;45.70;;;22.75;;
21959;SDS011;11144;43.030;25.108;2022-12-29T14:31:34;45.55;;;23.90;;
21959;SDS011;11144;43.030;25.108;2022-12-29T14:33:13;39.17;;;22.02;;
21959;SDS011;11144;43.030;25.108;2022-12-29T14:34:47;50.10;;;26.17;;
21959;SDS011;11144;43.030;25.108;2022-12-29T14:36:24;47.28;;;27.60;;
21959;SDS011;11144;43.030;25.108;2022-12-29T14:38:12;37.75;;;21.45;;
21959;SDS011;11144;43.030;25.108;2022-12-29T14:40:03;47.58;;;28.80;;
21959;SDS011;11144;43.030;25.108;2022-12-29T14:41:38;65.25;;;36.35;;
21959;SDS011;11144;43.030;25.108;2022-12-29T14:43:12;67.82;;;32.83;;
21959;SDS011;11144;43.030;25.108;2022-12-29T14:44:51;76.90;;;41.40;;
21959;SDS011;11144;43.030;25.108;2022-12-29T14:46:42;77.85;;;43.15;;
21959;SDS011;11144;43.030;25.108;2022-12-29T14:48:34;69.95;;;36.30;;
21959;SDS011;11144;43.030;25.108;2022-12-29T14:50:13;68.63;;;37.42;;
21959;SDS011;11144;43.030;25.108;2022-12-29T14:51:50;63.03;;;35.10;;
21959;SDS011;11144;43.030;25.108;2022-12-29T14:53:43;66.47;;;37.08;;
21959;SDS011;11144;43.030;25.108;2022-12-29T14:55:29;72.78;;;41.45;;
21959;SDS011;11144;43.030;25.108;2022-12-29T14:57:14;47.72;;;26.23;;
21959;SDS011;11144;43.030;25.108;2022-12-29T14:59:05;47.60;;;24.55;;
21959;SDS011;11144;43.030;25.108;2022-12-29T15:00:43;61.58;;;30.63;;
21959;SDS011;11144;43.030;25.108;2022-12-29T15:02:19;69.10;;;35.78;;
21959;SDS011;11144;43.030;25.108;2022-12-29T15:03:59;54.97;;;30.85;;
21959;SDS011;11144;43.030;25.108;2022-12-29T15:05:40;46.00;;;27.73;;
21959;SDS011;11144;43.030;25.108;2022-12-29T15:07:17;69.85;;;40.33;;
21959;SDS011;11144;43.030;25.108;2022-12-29T15:08:54;59.05;;;33.20;;
21959;SDS011;11144;43.030;25.108;2022-12-29T15:10:37;81.95;;;40.33;;
21959;SDS011;11144;43.030;25.108;2022-12-29T15:12:18;88.20;;;45.95;;
21959;SDS011;11144;43.030;25.108;2022-12-29T15:13:55;77.28;;;39.03;;
21959;SDS011;11144;43.030;25.108;2022-12-29T15:15:28;82.30;;;44.10;;
21959;SDS011;11144;43.030;25.108;2022-12-29T15:17:09;83.03;;;43.03;;
21959;SDS011;11144;43.030;25.108;2022-12-29T15:18:55;84.25;;;43.25;;
21959;SDS011;11144;43.030;25.108;2022-12-29T15:20:29;88.65;;;43.40;;
21959;SDS011;11144;43.030;25.108;2022-12-29T15:22:03;83.40;;;43.88;;
21959;SDS011;11144;43.030;25.108;2022-12-29T15:23:37;89.25;;;46.90;;
21959;SDS011;11144;43.030;25.108;2022-12-29T15:25:13;81.85;;;45.92;;
21959;SDS011;11144;43.030;25.108;2022-12-29T15:26:49;90.22;;;43.67;;
21959;SDS011;11144;43.030;25.108;2022-12-29T15:28:24;96.38;;;47.47;;
21959;SDS011;11144;43.030;25.108;2022-12-29T15:29:59;79.45;;;45.00;;
21959;SDS011;11144;43.030;25.108;2022-12-29T15:31:34;80.57;;;43.00;;
21959;SDS011;11144;43.030;25.108;2022-12-29T15:33:20;91.95;;;48.47;;
21959;SDS011;11144;43.030;25.108;2022-12-29T15:34:56;117.50;;;57.15;;
21959;SDS011;11144;43.030;25.108;2022-12-29T15:36:34;96.18;;;47.55;;
21959;SDS011;11144;43.030;25.108;2022-12-29T15:38:14;44.50;;;26.98;;
21959;SDS011;11144;43.030;25.108;2022-12-29T15:39:48;67.65;;;35.85;;
21959;SDS011;11144;43.030;25.108;2022-12-29T15:41:26;70.35;;;36.47;;
21959;SDS011;11144;43.030;25.108;2022-12-29T15:43:32;58.80;;;31.70;;
21959;SDS011;11144;43.030;25.108;2022-12-29T15:45:19;49.17;;;28.88;;
21959;SDS011;11144;43.030;25.108;2022-12-29T15:46:53;58.97;;;32.65;;
21959;SDS011;11144;43.030;25.108;2022-12-29T15:48:27;63.28;;;35.50;;
21959;SDS011;11144;43.030;25.108;2022-12-29T15:50:02;57.90;;;33.30;;
21959;SDS011;11144;43.030;25.108;2022-12-29T15:51:38;62.80;;;33.78;;
21959;SDS011;11144;43.030;25.108;2022-12-29T15:53:16;54.38;;;31.33;;
21959;SDS011;11144;43.030;25.108;2022-12-29T15:54:56;49.55;;;26.02;;
21959;SDS011;11144;43.030;25.108;2022-12-29T15:56:33;34.35;;;20.52;;
21959;SDS011;11144;43.030;25.108;2022-12-29T15:58:17;49.40;;;26.63;;
21959;SDS011;11144;43.030;25.108;2022-12-29T15:59:52;50.15;;;26.48;;
21959;SDS011;11144;43.030;25.108;2022-12-29T16:01:27;51.95;;;29.17;;
21959;SDS011;11144;43.030;25.108;2022-12-29T16:03:04;53.10;;;28.60;;
21959;SDS011;11144;43.030;25.108;2022-12-29T16:04:39;69.85;;;36.63;;
21959;SDS011;11144;43.030;25.108;2022-12-29T16:06:35;65.15;;;35.47;;
21959;SDS011;11144;43.030;25.108;2022-12-29T16:08:21;59.13;;;32.30;;
21959;SDS011;11144;43.030;25.108;2022-12-29T16:10:00;51.25;;;27.05;;
21959;SDS011;11144;43.030;25.108;2022-12-29T16:11:36;48.03;;;28.55;;
21959;SDS011;11144;43.030;25.108;2022-12-29T16:13:13;96.53;;;50.55;;
21959;SDS011;11144;43.030;25.108;2022-12-29T16:15:12;121.15;;;53.58;;
21959;SDS011;11144;43.030;25.108;2022-12-29T16:16:47;116.88;;;59.97;;
21959;SDS011;11144;43.030;25.108;2022-12-29T16:18:23;128.25;;;65.30;;
21959;SDS011;11144;43.030;25.108;2022-12-29T16:20:03;109.05;;;59.45;;
21959;SDS011;11144;43.030;25.108;2022-12-29T16:21:48;98.28;;;49.15;;
21959;SDS011;11144;43.030;25.108;2022-12-29T16:23:23;98.35;;;50.13;;
21959;SDS011;11144;43.030;25.108;2022-12-29T16:25:00;92.78;;;46.88;;
21959;SDS011;11144;43.030;25.108;2022-12-29T16:26:37;95.28;;;50.20;;
21959;SDS011;11144;43.030;25.108;2022-12-29T16:28:15;110.78;;;54.58;;
21959;SDS011;11144;43.030;25.108;2022-12-29T16:29:52;103.70;;;51.33;;
21959;SDS011;11144;43.030;25.108;2022-12-29T16:31:33;104.43;;;54.20;;
21959;SDS011;11144;43.030;25.108;2022-12-29T16:35:19;160.52;;;79.53;;
21959;SDS011;11144;43.030;25.108;2022-12-29T16:36:55;192.18;;;91.05;;
21959;SDS011;11144;43.030;25.108;2022-12-29T16:38:30;181.18;;;86.95;;
21959;SDS011;11144;43.030;25.108;2022-12-29T16:40:28;142.40;;;66.82;;
21959;SDS011;11144;43.030;25.108;2022-12-29T16:44:12;156.93;;;68.53;;
21959;SDS011;11144;43.030;25.108;2022-12-29T16:46:22;140.65;;;60.72;;
21959;SDS011;11144;43.030;25.108;2022-12-29T16:48:09;156.23;;;61.03;;
21959;SDS011;11144;43.030;25.108;2022-12-29T16:49:52;130.75;;;60.38;;
21959;SDS011;11144;43.030;25.108;2022-12-29T16:51:45;80.28;;;40.95;;
21959;SDS011;11144;43.030;25.108;2022-12-29T16:53:21;63.80;;;32.30;;
21959;SDS011;11144;43.030;25.108;2022-12-29T16:54:58;43.63;;;25.13;;
21959;SDS011;11144;43.030;25.108;2022-12-29T16:56:33;43.95;;;25.80;;
21959;SDS011;11144;43.030;25.108;2022-12-29T16:58:12;33.78;;;19.90;;
21959;SDS011;11144;43.030;25.108;2022-12-29T16:59:51;38.97;;;19.42;;
21959;SDS011;11144;43.030;25.108;2022-12-29T17:01:28;17.35;;;10.75;;
21959;SDS011;11144;43.030;25.108;2022-12-29T17:03:02;38.00;;;24.45;;
21959;SDS011;11144;43.030;25.108;2022-12-29T17:04:36;27.25;;;15.98;;
21959;SDS011;11144;43.030;25.108;2022-12-29T17:06:10;35.10;;;21.00;;
21959;SDS011;11144;43.030;25.108;2022-12-29T17:07:47;42.78;;;20.48;;
21959;SDS011;11144;43.030;25.108;2022-12-29T17:09:23;35.88;;;20.67;;
21959;SDS011;11144;43.030;25.108;2022-12-29T17:10:57;37.47;;;19.40;;
21959;SDS011;11144;43.030;25.108;2022-12-29T17:12:49;38.28;;;20.23;;
21959;SDS011;11144;43.030;25.108;2022-12-29T17:16:15;52.45;;;27.75;;
21959;SDS011;11144;43.030;25.108;2022-12-29T17:17:49;211.35;;;113.60;;
21959;SDS011;11144;43.030;25.108;2022-12-29T17:19:28;65.15;;;33.45;;
21959;SDS011;11144;43.030;25.108;2022-12-29T17:21:05;38.40;;;19.52;;
21959;SDS011;11144;43.030;25.108;2022-12-29T17:22:41;41.92;;;21.77;;
21959;SDS011;11144;43.030;25.108;2022-12-29T17:24:18;91.03;;;43.25;;
21959;SDS011;11144;43.030;25.108;2022-12-29T17:25:51;99.43;;;47.22;;
21959;SDS011;11144;43.030;25.108;2022-12-29T17:27:27;89.32;;;40.50;;
21959;SDS011;11144;43.030;25.108;2022-12-29T17:29:02;88.50;;;40.50;;
21959;SDS011;11144;43.030;25.108;2022-12-29T17:30:37;69.03;;;29.50;;
21959;SDS011;11144;43.030;25.108;2022-12-29T17:32:12;73.45;;;33.35;;
21959;SDS011;11144;43.030;25.108;2022-12-29T17:33:47;53.83;;;26.38;;
21959;SDS011;11144;43.030;25.108;2022-12-29T17:35:20;40.25;;;24.67;;
21959;SDS011;11144;43.030;25.108;2022-12-29T17:36:54;42.80;;;22.73;;
21959;SDS011;11144;43.030;25.108;2022-12-29T17:38:27;48.35;;;25.85;;
21959;SDS011;11144;43.030;25.108;2022-12-29T17:40:07;46.30;;;24.00;;
21959;SDS011;11144;43.030;25.108;2022-12-29T17:41:45;44.33;;;22.20;;
21959;SDS011;11144;43.030;25.108;2022-12-29T17:43:19;34.42;;;19.70;;
21959;SDS011;11144;43.030;25.108;2022-12-29T17:44:54;34.05;;;18.25;;
21959;SDS011;11144;43.030;25.108;2022-12-29T17:46:29;35.10;;;17.98;;
21959;SDS011;11144;43.030;25.108;2022-12-29T17:48:04;32.58;;;17.13;;
21959;SDS011;11144;43.030;25.108;2022-12-29T17:49:43;37.35;;;18.25;;
21959;SDS011;11144;43.030;25.108;2022-12-29T17:51:18;32.55;;;16.42;;
21959;SDS011;11144;43.030;25.108;2022-12-29T17:52:57;44.30;;;22.48;;
21959;SDS011;11144;43.030;25.108;2022-12-29T17:54:32;41.83;;;19.10;;
21959;SDS011;11144;43.030;25.108;2022-12-29T17:56:06;46.17;;;22.42;;
21959;SDS011;11144;43.030;25.108;2022-12-29T17:57:40;42.70;;;21.45;;
21959;SDS011;11144;43.030;25.108;2022-12-29T17:59:17;178.55;;;91.00;;
21959;SDS011;11144;43.030;25.108;2022-12-29T18:00:51;49.03;;;26.92;;
21959;SDS011;11144;43.030;25.108;2022-12-29T18:02:28;53.95;;;25.67;;
21959;SDS011;11144;43.030;25.108;2022-12-29T18:04:03;42.22;;;23.52;;
21959;SDS011;11144;43.030;25.108;2022-12-29T18:05:37;41.28;;;20.45;;
21959;SDS011;11144;43.030;25.108;2022-12-29T18:07:10;30.52;;;18.08;;
21959;SDS011;11144;43.030;25.108;2022-12-29T18:08:43;44.65;;;21.42;;
21959;SDS011;11144;43.030;25.108;2022-12-29T18:10:17;30.48;;;16.98;;
21959;SDS011;11144;43.030;25.108;2022-12-29T18:11:50;34.15;;;16.70;;
21959;SDS011;11144;43.030;25.108;2022-12-29T18:13:25;31.85;;;16.33;;
21959;SDS011;11144;43.030;25.108;2022-12-29T18:15:17;30.98;;;15.77;;
21959;SDS011;11144;43.030;25.108;2022-12-29T18:16:52;28.55;;;15.70;;
21959;SDS011;11144;43.030;25.108;2022-12-29T18:18:28;33.17;;;18.20;;
21959;SDS011;11144;43.030;25.108;2022-12-29T18:20:01;39.85;;;20.80;;
21959;SDS011;11144;43.030;25.108;2022-12-29T18:21:35;43.38;;;24.77;;
21959;SDS011;11144;43.030;25.108;2022-12-29T18:23:13;45.13;;;26.70;;
21959;SDS011;11144;43.030;25.108;2022-12-29T18:24:51;44.70;;;24.70;;
21959;SDS011;11144;43.030;25.108;2022-12-29T18:26:25;53.58;;;25.60;;
21959;SDS011;11144;43.030;25.108;2022-12-29T18:28:02;42.70;;;24.42;;
21959;SDS011;11144;43.030;25.108;2022-12-29T18:29:36;38.00;;;22.50;;
21959;SDS011;11144;43.030;25.108;2022-12-29T18:31:13;42.92;;;23.05;;
21959;SDS011;11144;43.030;25.108;2022-12-29T18:32:52;40.55;;;22.20;;
21959;SDS011;11144;43.030;25.108;2022-12-29T18:34:27;43.85;;;23.45;;
21959;SDS011;11144;43.030;25.108;2022-12-29T18:36:02;43.13;;;24.35;;
21959;SDS011;11144;43.030;25.108;2022-12-29T18:37:37;38.47;;;22.25;;
21959;SDS011;11144;43.030;25.108;2022-12-29T18:39:11;45.13;;;25.35;;
21959;SDS011;11144;43.030;25.108;2022-12-29T18:40:45;48.08;;;25.55;;
21959;SDS011;11144;43.030;25.108;2022-12-29T18:42:19;66.25;;;36.08;;
21959;SDS011;11144;43.030;25.108;2022-12-29T18:43:53;66.18;;;33.95;;
21959;SDS011;11144;43.030;25.108;2022-12-29T18:45:30;58.53;;;31.27;;
21959;SDS011;11144;43.030;25.108;2022-12-29T18:47:05;56.17;;;30.65;;
21959;SDS011;11144;43.030;25.108;2022-12-29T18:48:39;65.70;;;33.83;;
21959;SDS011;11144;43.030;25.108;2022-12-29T18:50:14;71.22;;;36.40;;
21959;SDS011;11144;43.030;25.108;2022-12-29T18:51:48;69.45;;;37.95;;
21959;SDS011;11144;43.030;25.108;2022-12-29T18:53:22;155.15;;;80.00;;
21959;SDS011;11144;43.030;25.108;2022-12-29T18:54:56;64.38;;;35.22;;
21959;SDS011;11144;43.030;25.108;2022-12-29T18:56:29;58.80;;;31.63;;
21959;SDS011;11144;43.030;25.108;2022-12-29T18:58:03;61.55;;;32.92;;
21959;SDS011;11144;43.030;25.108;2022-12-29T18:59:37;65.15;;;33.70;;
21959;SDS011;11144;43.030;25.108;2022-12-29T19:01:14;57.28;;;30.58;;
21959;SDS011;11144;43.030;25.108;2022-12-29T19:02:53;53.80;;;28.40;;
21959;SDS011;11144;43.030;25.108;2022-12-29T19:04:27;56.70;;;28.55;;
21959;SDS011;11144;43.030;25.108;2022-12-29T19:06:03;116.82;;;57.45;;
21959;SDS011;11144;43.030;25.108;2022-12-29T19:07:37;104.80;;;52.25;;
21959;SDS011;11144;43.030;25.108;2022-12-29T19:09:10;82.35;;;40.35;;
21959;SDS011;11144;43.030;25.108;2022-12-29T19:10:44;57.05;;;31.02;;
21959;SDS011;11144;43.030;25.108;2022-12-29T19:12:18;46.25;;;25.58;;
21959;SDS011;11144;43.030;25.108;2022-12-29T19:13:58;51.75;;;28.50;;
21959;SDS011;11144;43.030;25.108;2022-12-29T19:15:32;48.92;;;27.02;;
21959;SDS011;11144;43.030;25.108;2022-12-29T19:17:09;54.70;;;28.45;;
21959;SDS011;11144;43.030;25.108;2022-12-29T19:18:44;50.15;;;26.60;;
21959;SDS011;11144;43.030;25.108;2022-12-29T19:20:39;43.30;;;23.65;;
21959;SDS011;11144;43.030;25.108;2022-12-29T19:22:15;53.33;;;26.30;;
21959;SDS011;11144;43.030;25.108;2022-12-29T19:23:48;101.55;;;47.75;;
21959;SDS011;11144;43.030;25.108;2022-12-29T19:25:22;107.18;;;52.55;;
21959;SDS011;11144;43.030;25.108;2022-12-29T19:26:56;72.13;;;37.58;;
21959;SDS011;11144;43.030;25.108;2022-12-29T19:28:30;65.18;;;32.53;;
21959;SDS011;11144;43.030;25.108;2022-12-29T19:30:04;40.47;;;20.45;;
21959;SDS011;11144;43.030;25.108;2022-12-29T19:31:38;45.33;;;23.20;;
21959;SDS011;11144;43.030;25.108;2022-12-29T19:33:12;64.32;;;31.50;;
21959;SDS011;11144;43.030;25.108;2022-12-29T19:34:46;49.53;;;24.90;;
21959;SDS011;11144;43.030;25.108;2022-12-29T19:36:20;37.22;;;17.02;;
21959;SDS011;11144;43.030;25.108;2022-12-29T19:37:57;38.08;;;20.42;;
21959;SDS011;11144;43.030;25.108;2022-12-29T19:39:30;43.08;;;23.58;;
21959;SDS011;11144;43.030;25.108;2022-12-29T19:41:05;49.85;;;26.58;;
21959;SDS011;11144;43.030;25.108;2022-12-29T19:42:39;46.08;;;26.27;;
21959;SDS011;11144;43.030;25.108;2022-12-29T19:44:13;54.78;;;27.50;;
21959;SDS011;11144;43.030;25.108;2022-12-29T19:45:48;51.45;;;27.38;;
21959;SDS011;11144;43.030;25.108;2022-12-29T19:47:21;58.33;;;29.95;;
21959;SDS011;11144;43.030;25.108;2022-12-29T19:49:02;53.63;;;25.70;;
21959;SDS011;11144;43.030;25.108;2022-12-29T19:50:36;55.65;;;24.15;;
21959;SDS011;11144;43.030;25.108;2022-12-29T19:52:09;111.38;;;42.63;;
21959;SDS011;11144;43.030;25.108;2022-12-29T19:53:44;72.68;;;27.73;;
21959;SDS011;11144;43.030;25.108;2022-12-29T19:55:18;71.07;;;27.02;;
21959;SDS011;11144;43.030;25.108;2022-12-29T19:56:52;55.10;;;24.92;;
21959;SDS011;11144;43.030;25.108;2022-12-29T19:58:25;48.88;;;21.42;;
21959;SDS011;11144;43.030;25.108;2022-12-29T19:59:58;28.13;;;13.88;;
21959;SDS011;11144;43.030;25.108;2022-12-29T20:01:42;36.42;;;16.33;;
21959;SDS011;11144;43.030;25.108;2022-12-29T20:03:16;48.38;;;22.10;;
21959;SDS011;11144;43.030;25.108;2022-12-29T20:04:49;46.28;;;22.30;;
21959;SDS011;11144;43.030;25.108;2022-12-29T20:06:23;48.63;;;24.50;;
21959;SDS011;11144;43.030;25.108;2022-12-29T20:07:56;27.83;;;15.80;;
21959;SDS011;11144;43.030;25.108;2022-12-29T20:09:31;25.88;;;13.75;;
21959;SDS011;11144;43.030;25.108;2022-12-29T20:11:05;22.00;;;12.85;;
21959;SDS011;11144;43.030;25.108;2022-12-29T20:12:40;17.05;;;10.13;;
21959;SDS011;11144;43.030;25.108;2022-12-29T20:14:13;25.77;;;11.60;;
21959;SDS011;11144;43.030;25.108;2022-12-29T20:15:47;25.02;;;13.77;;
21959;SDS011;11144;43.030;25.108;2022-12-29T20:17:20;32.67;;;14.52;;
21959;SDS011;11144;43.030;25.108;2022-12-29T20:19:16;21.17;;;10.30;;
21959;SDS011;11144;43.030;25.108;2022-12-29T20:20:50;29.20;;;15.50;;
21959;SDS011;11144;43.030;25.108;2022-12-29T20:22:23;34.35;;;17.75;;
21959;SDS011;11144;43.030;25.108;2022-12-29T20:23:56;37.95;;;20.25;;
21959;SDS011;11144;43.030;25.108;2022-12-29T20:25:31;26.73;;;15.07;;
21959;SDS011;11144;43.030;25.108;2022-12-29T20:27:20;34.97;;;16.27;;
21959;SDS011;11144;43.030;25.108;2022-12-29T20:28:53;25.50;;;12.75;;
21959;SDS011;11144;43.030;25.108;2022-12-29T20:30:29;28.70;;;14.73;;
21959;SDS011;11144;43.030;25.108;2022-12-29T20:32:02;37.53;;;19.50;;
21959;SDS011;11144;43.030;25.108;2022-12-29T20:33:36;50.15;;;21.73;;